createdAt,value
2023-01-19T00:00:50.525Z,5.71
2023-01-19T00:03:18.409Z,5.81
2023-01-19T00:05:46.159Z,5.80
2023-01-19T00:08:15.059Z,5.76
2023-01-19T00:10:49.820Z,5.76
2023-01-19T00:13:17.554Z,5.65
2023-01-19T00:15:45.888Z,5.68
2023-01-19T00:18:13.557Z,5.60
2023-01-19T00:20:41.619Z,5.63
2023-01-19T00:23:09.766Z,5.72
2023-01-19T00:25:38.177Z,5.64
2023-01-19T00:28:06.031Z,5.80
2023-01-19T00:30:34.233Z,5.71
2023-01-19T00:33:02.224Z,5.58
2023-01-19T00:35:30.105Z,5.53
2023-01-19T00:37:58.781Z,5.61
2023-01-19T00:40:26.516Z,5.61
2023-01-19T00:42:54.472Z,5.65
2023-01-19T00:45:23.864Z,5.53
2023-01-19T00:47:52.220Z,5.63
2023-01-19T00:50:20.126Z,5.57
2023-01-19T00:52:47.981Z,5.63
2023-01-19T00:55:16.168Z,5.56
2023-01-19T00:57:43.758Z,5.50
2023-01-19T01:00:16.266Z,5.62
2023-01-19T01:02:44.663Z,5.60
2023-01-19T01:05:12.984Z,5.58
2023-01-19T01:07:41.735Z,5.63
2023-01-19T01:10:11.435Z,5.69
2023-01-19T01:12:39.639Z,5.53
2023-01-19T01:15:09.193Z,5.58
2023-01-19T01:17:37.397Z,5.59
2023-01-19T01:20:05.960Z,5.54
2023-01-19T01:22:33.568Z,5.67
2023-01-19T01:25:01.138Z,5.60
2023-01-19T01:27:29.061Z,5.67
2023-01-19T01:29:56.865Z,5.61
2023-01-19T01:32:24.532Z,5.73
2023-01-19T01:34:52.487Z,5.64
2023-01-19T01:37:20.203Z,5.66
2023-01-19T01:39:47.867Z,5.60
2023-01-19T01:42:18.352Z,5.60
2023-01-19T01:44:51.900Z,5.61
2023-01-19T01:47:36.837Z,5.50
2023-01-19T01:50:10.665Z,5.60
2023-01-19T01:53:06.989Z,5.45
2023-01-19T01:55:42.282Z,5.31
2023-01-19T01:58:10.768Z,5.35
2023-01-19T02:00:39.083Z,5.51
2023-01-19T02:03:07.414Z,5.33
2023-01-19T02:05:35.646Z,5.28
2023-01-19T02:08:13.225Z,5.26
2023-01-19T02:10:42.395Z,5.16
2023-01-19T02:13:10.325Z,5.35
2023-01-19T02:15:37.911Z,5.29
2023-01-19T02:18:06.126Z,5.34
2023-01-19T02:20:35.894Z,5.34
2023-01-19T02:23:07.948Z,5.23
2023-01-19T02:25:35.818Z,5.11
2023-01-19T02:28:03.500Z,5.19
2023-01-19T02:30:31.347Z,5.11
2023-01-19T02:32:59.641Z,5.13
2023-01-19T02:35:27.490Z,5.22
2023-01-19T02:37:55.872Z,5.06
2023-01-19T02:40:24.236Z,4.96
2023-01-19T02:42:53.166Z,4.93
2023-01-19T02:45:22.180Z,5.07
2023-01-19T02:47:51.972Z,4.93
2023-01-19T02:50:45.258Z,4.94
2023-01-19T02:53:24.634Z,4.87
2023-01-19T02:56:18.815Z,4.88
2023-01-19T02:59:14.418Z,4.85
2023-01-19T03:01:58.397Z,4.87
2023-01-19T03:04:41.567Z,4.67
2023-01-19T03:07:20.009Z,4.81
2023-01-19T03:10:14.129Z,4.67
2023-01-19T03:12:50.026Z,4.88
2023-01-19T03:15:29.508Z,4.79
2023-01-19T03:17:58.263Z,4.96
2023-01-19T03:20:26.910Z,4.75
2023-01-19T03:23:03.177Z,4.74
2023-01-19T03:25:35.368Z,4.73
2023-01-19T03:28:03.700Z,4.64
2023-01-19T03:30:38.450Z,4.65
2023-01-19T03:33:17.029Z,4.52
2023-01-19T03:35:48.908Z,4.35
2023-01-19T03:38:21.195Z,4.40
2023-01-19T03:40:49.839Z,4.28
2023-01-19T03:43:18.251Z,4.25
2023-01-19T03:45:46.100Z,4.34
2023-01-19T03:48:14.663Z,4.29
2023-01-19T03:50:42.479Z,4.22
2023-01-19T03:53:12.747Z,4.17
2023-01-19T03:55:42.638Z,4.01
2023-01-19T03:58:10.369Z,4.17
2023-01-19T04:00:38.311Z,4.07
2023-01-19T04:03:10.786Z,4.12
2023-01-19T04:05:38.575Z,3.93
2023-01-19T04:08:07.506Z,4.14
2023-01-19T04:10:35.315Z,4.09
2023-01-19T04:13:04.174Z,4.20
2023-01-19T04:15:32.415Z,4.10
2023-01-19T04:18:01.003Z,4.05
2023-01-19T04:20:29.129Z,4.13
2023-01-19T04:23:01.563Z,4.23
2023-01-19T04:25:29.539Z,3.96
2023-01-19T04:27:57.550Z,4.05
2023-01-19T04:30:26.022Z,4.01
2023-01-19T04:32:53.727Z,4.04
2023-01-19T04:35:21.635Z,3.95
2023-01-19T04:37:49.311Z,4.13
2023-01-19T04:40:17.036Z,4.04
2023-01-19T04:42:45.106Z,4.00
2023-01-19T04:45:13.693Z,4.09
2023-01-19T04:47:41.450Z,3.90
2023-01-19T04:50:11.059Z,3.76
2023-01-19T04:52:38.680Z,3.80
2023-01-19T04:55:07.113Z,3.93
2023-01-19T04:57:35.087Z,3.72
2023-01-19T05:00:04.715Z,3.79
2023-01-19T05:02:32.697Z,3.66
2023-01-19T05:05:01.007Z,3.66
2023-01-19T05:07:29.152Z,3.54
2023-01-19T05:09:56.835Z,3.55
2023-01-19T05:12:24.845Z,3.42
2023-01-19T05:14:52.507Z,3.41
2023-01-19T05:17:20.202Z,3.37
2023-01-19T05:19:48.113Z,3.43
2023-01-19T05:22:16.346Z,3.47
2023-01-19T05:24:44.001Z,3.37
2023-01-19T05:27:12.778Z,3.36
2023-01-19T05:29:40.721Z,3.38
2023-01-19T05:32:09.096Z,3.44
2023-01-19T05:34:36.973Z,3.38
2023-01-19T05:37:04.788Z,3.34
2023-01-19T05:39:32.490Z,3.44
2023-01-19T05:42:00.481Z,3.21
2023-01-19T05:44:28.053Z,3.20
2023-01-19T05:46:55.823Z,3.01
2023-01-19T05:49:23.848Z,3.03
2023-01-19T05:51:51.486Z,3.16
2023-01-19T05:54:19.385Z,3.22
2023-01-19T05:56:47.585Z,3.02
2023-01-19T05:59:15.179Z,3.07
2023-01-19T06:01:43.867Z,3.07
2023-01-19T06:04:12.087Z,3.26
2023-01-19T06:06:40.025Z,3.17
2023-01-19T06:09:08.206Z,3.23
2023-01-19T06:11:36.533Z,3.22
2023-01-19T06:14:04.410Z,3.19
2023-01-19T06:16:32.153Z,3.23
2023-01-19T06:19:01.739Z,3.23
2023-01-19T06:21:37.422Z,3.38
2023-01-19T06:24:09.962Z,3.22
2023-01-19T06:26:40.384Z,3.37
2023-01-19T06:29:09.605Z,3.35
2023-01-19T06:31:37.173Z,3.37
2023-01-19T06:34:05.155Z,3.53
2023-01-19T06:36:33.112Z,3.44
2023-01-19T06:39:03.536Z,3.45
2023-01-19T06:41:34.751Z,3.29
2023-01-19T06:44:03.282Z,3.32
2023-01-19T06:46:32.005Z,3.43
2023-01-19T06:48:59.640Z,3.47
2023-01-19T06:51:27.530Z,3.47
2023-01-19T06:53:55.174Z,3.48
2023-01-19T06:56:22.804Z,3.36
2023-01-19T06:58:51.635Z,3.64
2023-01-19T07:01:19.765Z,3.42
2023-01-19T07:03:47.528Z,3.63
2023-01-19T07:06:15.483Z,3.60
2023-01-19T07:08:43.072Z,3.60
2023-01-19T07:11:24.922Z,3.86
2023-01-19T07:13:58.866Z,3.80
2023-01-19T07:16:26.661Z,3.79
2023-01-19T07:18:54.372Z,3.79
2023-01-19T07:21:23.294Z,3.92
2023-01-19T07:23:52.075Z,3.78
2023-01-19T07:26:19.919Z,3.70
2023-01-19T07:28:48.434Z,3.75
2023-01-19T07:31:16.458Z,3.78
2023-01-19T07:33:44.866Z,3.80
2023-01-19T07:36:12.843Z,3.84
2023-01-19T07:38:40.552Z,3.86
2023-01-19T07:41:10.018Z,3.80
2023-01-19T07:43:38.090Z,3.82
2023-01-19T07:46:06.655Z,4.03
2023-01-19T07:48:34.603Z,3.92
2023-01-19T07:51:03.709Z,3.94
2023-01-19T07:53:31.814Z,3.97
2023-01-19T07:55:59.353Z,4.10
2023-01-19T07:58:27.570Z,4.04
2023-01-19T08:00:55.241Z,4.18
2023-01-19T08:03:23.204Z,4.24
2023-01-19T08:05:53.632Z,4.00
2023-01-19T08:08:21.493Z,3.87
2023-01-19T08:10:50.686Z,4.00
2023-01-19T08:13:18.725Z,3.94
2023-01-19T08:15:49.835Z,4.00
2023-01-19T08:18:17.855Z,4.16
2023-01-19T08:20:45.479Z,4.09
2023-01-19T08:23:13.219Z,4.08
2023-01-19T08:25:42.873Z,4.00
2023-01-19T08:28:14.801Z,4.26
2023-01-19T08:30:44.017Z,4.25
2023-01-19T08:33:12.720Z,4.28
2023-01-19T08:35:42.527Z,4.43
2023-01-19T08:38:10.808Z,4.40
2023-01-19T08:40:39.792Z,4.53
2023-01-19T08:43:10.686Z,4.48
2023-01-19T08:45:41.072Z,4.44
2023-01-19T08:48:08.709Z,4.63
2023-01-19T08:50:36.273Z,4.53
2023-01-19T08:53:04.253Z,4.70
2023-01-19T08:55:34.108Z,4.57
2023-01-19T08:58:02.577Z,4.78
2023-01-19T09:00:31.596Z,4.83
2023-01-19T09:03:00.995Z,4.80
2023-01-19T09:05:30.574Z,4.83
2023-01-19T09:07:58.798Z,4.87
2023-01-19T09:10:26.754Z,4.72
2023-01-19T09:12:54.411Z,4.74
2023-01-19T09:15:22.509Z,4.74
2023-01-19T09:17:52.300Z,4.76
2023-01-19T09:20:20.012Z,4.66
2023-01-19T09:22:48.042Z,4.58
2023-01-19T09:25:15.820Z,4.71
2023-01-19T09:27:43.849Z,4.79
2023-01-19T09:30:12.347Z,4.59
2023-01-19T09:32:40.669Z,4.65
2023-01-19T09:35:09.228Z,4.77
2023-01-19T09:37:37.339Z,4.79
2023-01-19T09:40:06.593Z,4.82
2023-01-19T09:42:43.791Z,4.80
2023-01-19T09:45:17.446Z,4.96
2023-01-19T09:47:45.865Z,4.93
2023-01-19T09:50:26.384Z,4.87
2023-01-19T09:53:01.046Z,4.97
2023-01-19T09:55:29.546Z,4.92
2023-01-19T09:57:57.229Z,5.09
2023-01-19T10:00:25.749Z,4.77
2023-01-19T10:02:59.701Z,5.13
2023-01-19T10:05:40.013Z,4.99
2023-01-19T10:08:14.672Z,5.02
2023-01-19T10:10:45.995Z,5.11
2023-01-19T10:13:40.751Z,5.28
2023-01-19T10:16:11.805Z,5.30
2023-01-19T10:18:47.941Z,5.35
2023-01-19T10:21:24.983Z,5.21
2023-01-19T10:23:57.235Z,5.18
2023-01-19T10:26:27.383Z,5.11
2023-01-19T10:28:59.137Z,5.27
2023-01-19T10:31:26.899Z,5.27
2023-01-19T10:33:54.862Z,5.24
2023-01-19T10:36:29.461Z,5.35
2023-01-19T10:38:58.051Z,5.25
2023-01-19T10:41:39.026Z,5.33
2023-01-19T10:44:07.334Z,5.37
2023-01-19T10:46:49.036Z,5.42
2023-01-19T10:49:27.480Z,5.28
2023-01-19T10:51:56.504Z,5.07
2023-01-19T10:54:26.095Z,5.08
2023-01-19T10:56:58.170Z,5.08
2023-01-19T10:59:34.164Z,5.39
2023-01-19T11:02:14.042Z,5.50
2023-01-19T11:04:42.200Z,5.40
2023-01-19T11:07:20.397Z,5.07
2023-01-19T11:09:49.891Z,5.38
2023-01-19T11:12:22.207Z,5.09
2023-01-19T11:14:51.256Z,5.22
2023-01-19T11:17:25.811Z,5.08
2023-01-19T11:19:59.762Z,5.04
2023-01-19T11:22:32.933Z,5.23
2023-01-19T11:25:02.340Z,5.14
2023-01-19T11:27:31.508Z,4.92
2023-01-19T11:30:05.029Z,4.97
2023-01-19T11:32:33.109Z,4.99
2023-01-19T11:35:00.811Z,4.93
2023-01-19T11:37:30.714Z,4.71
2023-01-19T11:39:59.614Z,5.08
2023-01-19T11:42:30.815Z,5.17
2023-01-19T11:45:01.693Z,5.02
2023-01-19T11:47:38.839Z,5.21
2023-01-19T11:50:14.772Z,4.75
2023-01-19T11:52:43.250Z,5.06
2023-01-19T11:55:33.874Z,4.89
2023-01-19T11:58:03.073Z,5.02
2023-01-19T12:00:46.884Z,4.90
2023-01-19T12:03:29.109Z,4.55
2023-01-19T12:06:07.540Z,4.53
2023-01-19T12:09:01.645Z,4.89
2023-01-19T12:11:37.479Z,4.70
2023-01-19T12:14:15.497Z,4.45
2023-01-19T12:16:43.821Z,4.62
2023-01-19T12:19:18.371Z,4.56
2023-01-19T12:21:46.667Z,4.39
2023-01-19T12:24:18.601Z,4.50
2023-01-19T12:27:13.129Z,4.67
2023-01-19T12:29:44.819Z,4.28
2023-01-19T12:32:14.945Z,4.39
2023-01-19T12:34:44.357Z,4.38
2023-01-19T12:37:27.180Z,4.12
2023-01-19T12:39:56.946Z,4.44
2023-01-19T12:42:26.985Z,4.09
2023-01-19T12:45:44.913Z,4.04
2023-01-19T12:48:24.769Z,4.54
2023-01-19T12:50:55.792Z,4.51
2023-01-19T12:53:23.671Z,4.46
2023-01-19T12:56:00.635Z,4.44
2023-01-19T12:58:28.900Z,4.09
2023-01-19T13:01:15.306Z,4.28
2023-01-19T13:04:02.214Z,4.55
2023-01-19T13:06:48.443Z,4.41
2023-01-19T13:09:39.198Z,4.69
2023-01-19T13:12:29.101Z,4.67
2023-01-19T13:15:48.054Z,4.83
2023-01-19T13:18:29.917Z,4.77
2023-01-19T13:21:08.744Z,4.47
2023-01-19T13:23:48.170Z,4.40
2023-01-19T13:26:18.197Z,4.79
2023-01-19T13:28:48.890Z,4.51
2023-01-19T13:31:18.169Z,4.75
2023-01-19T13:33:58.200Z,4.45
2023-01-19T13:36:34.167Z,4.46
2023-01-19T13:39:05.280Z,4.40
2023-01-19T13:41:35.754Z,4.63
2023-01-19T13:44:14.702Z,4.28
2023-01-19T13:46:43.354Z,3.99
2023-01-19T13:49:31.476Z,4.44
2023-01-19T13:52:26.123Z,3.96
2023-01-19T13:55:03.496Z,4.13
2023-01-19T13:57:44.660Z,4.18
2023-01-19T14:00:12.600Z,4.01
2023-01-19T14:02:52.248Z,4.13
2023-01-19T14:05:24.459Z,4.00
2023-01-19T14:08:10.542Z,3.95
2023-01-19T14:10:46.137Z,4.19
2023-01-19T14:13:17.049Z,4.22
2023-01-19T14:15:49.622Z,4.03
2023-01-19T14:18:17.570Z,3.86
2023-01-19T14:21:05.596Z,4.06
2023-01-19T14:23:36.321Z,4.24
2023-01-19T14:26:04.766Z,4.05
2023-01-19T14:28:32.359Z,3.81
2023-01-19T14:31:17.591Z,4.27
2023-01-19T14:33:46.886Z,4.01
2023-01-19T14:36:17.507Z,4.31
2023-01-19T14:38:47.431Z,4.24
2023-01-19T14:41:36.067Z,3.80
2023-01-19T14:44:09.346Z,4.23
2023-01-19T14:46:37.525Z,3.80
2023-01-19T14:49:06.521Z,4.15
2023-01-19T14:51:34.140Z,4.15
2023-01-19T14:54:02.256Z,3.97
2023-01-19T14:56:31.804Z,4.00
2023-01-19T14:59:01.478Z,3.99
2023-01-19T15:01:30.080Z,3.85
2023-01-19T15:03:58.235Z,3.73
2023-01-19T15:06:26.422Z,3.67
2023-01-19T15:08:54.641Z,3.79
2023-01-19T15:11:23.604Z,3.67
2023-01-19T15:13:51.495Z,3.77
2023-01-19T15:16:19.549Z,3.51
2023-01-19T15:18:47.484Z,3.71
2023-01-19T15:21:16.369Z,3.73
2023-01-19T15:23:47.529Z,3.74
2023-01-19T15:26:17.871Z,3.59
2023-01-19T15:28:46.324Z,3.65
2023-01-19T15:31:16.059Z,3.42
2023-01-19T15:33:44.153Z,3.71
2023-01-19T15:36:17.860Z,3.69
2023-01-19T15:38:46.792Z,3.72
2023-01-19T15:41:15.567Z,3.50
2023-01-19T15:43:43.267Z,3.73
2023-01-19T15:46:13.409Z,3.46
2023-01-19T15:48:41.920Z,3.39
2023-01-19T15:51:13.622Z,3.54
2023-01-19T15:53:41.697Z,3.52
2023-01-19T15:56:17.320Z,3.58
2023-01-19T15:58:46.124Z,3.21
2023-01-19T16:01:19.261Z,3.31
2023-01-19T16:03:47.543Z,3.17
2023-01-19T16:06:15.305Z,3.29
2023-01-19T16:08:43.015Z,3.18
2023-01-19T16:11:13.814Z,3.11
2023-01-19T16:13:45.278Z,3.35
2023-01-19T16:16:18.624Z,3.29
2023-01-19T16:18:46.700Z,3.32
2023-01-19T16:21:14.713Z,3.08
2023-01-19T16:23:45.039Z,3.20
2023-01-19T16:26:30.819Z,3.04
2023-01-19T16:29:04.089Z,3.21
2023-01-19T16:31:34.135Z,2.98
2023-01-19T16:34:02.412Z,2.87
2023-01-19T16:36:32.251Z,3.15
2023-01-19T16:39:01.594Z,3.16
2023-01-19T16:41:29.640Z,3.10
2023-01-19T16:43:57.895Z,3.33
2023-01-19T16:46:27.934Z,3.31
2023-01-19T16:49:01.498Z,3.13
2023-01-19T16:51:29.630Z,3.03
2023-01-19T16:53:57.680Z,2.94
2023-01-19T16:56:25.454Z,2.90
2023-01-19T16:58:57.360Z,2.97
2023-01-19T17:01:27.470Z,3.00
2023-01-19T17:03:55.689Z,2.97
2023-01-19T17:06:24.124Z,3.04
2023-01-19T17:08:52.900Z,2.93
2023-01-19T17:11:30.896Z,3.10
2023-01-19T17:14:01.822Z,3.10
2023-01-19T17:16:30.919Z,2.84
2023-01-19T17:19:04.698Z,2.96
2023-01-19T17:21:33.157Z,2.96
2023-01-19T17:24:01.064Z,3.12
2023-01-19T17:26:31.879Z,3.23
2023-01-19T17:29:00.844Z,2.92
2023-01-19T17:31:29.359Z,2.80
2023-01-19T17:33:57.704Z,2.92
2023-01-19T17:36:27.919Z,2.86
2023-01-19T17:38:58.096Z,2.91
2023-01-19T17:41:31.271Z,2.97
2023-01-19T17:43:59.999Z,3.02
2023-01-19T17:46:28.965Z,3.08
2023-01-19T17:49:05.031Z,2.94
2023-01-19T17:51:33.815Z,3.35
2023-01-19T17:54:01.874Z,3.28
2023-01-19T17:56:30.526Z,2.97
2023-01-19T17:58:59.270Z,3.03
2023-01-19T18:01:29.502Z,2.86
2023-01-19T18:03:58.309Z,2.77
2023-01-19T18:06:26.454Z,2.88
2023-01-19T18:08:56.588Z,3.13
2023-01-19T18:11:25.502Z,3.03
2023-01-19T18:13:53.952Z,2.95
2023-01-19T18:16:26.336Z,3.03
2023-01-19T18:18:55.162Z,3.25
2023-01-19T18:21:25.597Z,3.36
2023-01-19T18:23:59.490Z,3.18
2023-01-19T18:26:28.213Z,3.33
2023-01-19T18:28:57.285Z,3.25
2023-01-19T18:31:26.561Z,3.26
2023-01-19T18:33:55.157Z,3.17
2023-01-19T18:36:23.184Z,2.95
2023-01-19T18:38:51.357Z,3.03
2023-01-19T18:41:21.316Z,2.97
2023-01-19T18:43:49.825Z,2.77
2023-01-19T18:46:19.953Z,2.96
2023-01-19T18:48:48.236Z,2.82
2023-01-19T18:51:18.678Z,2.77
2023-01-19T18:53:46.645Z,2.66
2023-01-19T18:56:15.549Z,3.10
2023-01-19T18:58:43.722Z,2.97
2023-01-19T19:01:23.907Z,3.03
2023-01-19T19:03:53.765Z,2.85
2023-01-19T19:06:22.301Z,2.70
2023-01-19T19:08:51.267Z,2.87
2023-01-19T19:11:20.924Z,3.15
2023-01-19T19:13:57.315Z,2.94
2023-01-19T19:16:25.778Z,3.10
2023-01-19T19:18:53.733Z,3.11
2023-01-19T19:21:23.241Z,2.68
2023-01-19T19:23:53.728Z,2.74
2023-01-19T19:26:22.408Z,2.67
2023-01-19T19:28:50.423Z,2.80
2023-01-19T19:31:19.945Z,2.90
2023-01-19T19:33:48.684Z,2.66
2023-01-19T19:36:16.992Z,2.41
2023-01-19T19:38:45.340Z,2.71
2023-01-19T19:41:15.864Z,2.76
2023-01-19T19:43:44.086Z,3.01
2023-01-19T19:46:15.646Z,2.73
2023-01-19T19:48:43.518Z,2.92
2023-01-19T19:51:18.818Z,2.98
2023-01-19T19:53:50.159Z,2.67
2023-01-19T19:56:20.854Z,2.67
2023-01-19T19:58:50.596Z,2.50
2023-01-19T20:01:21.226Z,2.32
2023-01-19T20:03:49.807Z,2.58
2023-01-19T20:06:19.994Z,2.52
2023-01-19T20:08:49.122Z,2.68
2023-01-19T20:11:25.620Z,2.65
2023-01-19T20:13:54.056Z,2.74
2023-01-19T20:16:23.335Z,2.60
2023-01-19T20:18:53.242Z,2.80
2023-01-19T20:21:33.630Z,2.62
2023-01-19T20:24:06.527Z,2.32
2023-01-19T20:26:37.522Z,2.59
2023-01-19T20:29:06.091Z,2.46
2023-01-19T20:31:36.979Z,2.52
2023-01-19T20:34:08.147Z,2.56
2023-01-19T20:36:36.092Z,2.68
2023-01-19T20:39:04.435Z,2.39
2023-01-19T20:41:32.694Z,2.34
2023-01-19T20:44:00.339Z,2.64
2023-01-19T20:46:28.316Z,2.91
2023-01-19T20:48:56.460Z,2.75
2023-01-19T20:51:24.334Z,2.69
2023-01-19T20:53:52.393Z,2.67
2023-01-19T20:56:20.493Z,2.70
2023-01-19T20:58:48.425Z,2.80
2023-01-19T21:01:17.971Z,2.80
2023-01-19T21:03:48.051Z,2.78
2023-01-19T21:06:16.608Z,2.84
2023-01-19T21:08:44.630Z,2.85
2023-01-19T21:11:14.647Z,2.83
2023-01-19T21:13:42.217Z,2.90
2023-01-19T21:16:10.452Z,2.94
2023-01-19T21:18:39.416Z,2.89
2023-01-19T21:21:12.671Z,3.03
2023-01-19T21:23:46.360Z,3.03
2023-01-19T21:26:14.737Z,3.00
2023-01-19T21:28:43.154Z,2.97
2023-01-19T21:31:13.525Z,2.80
2023-01-19T21:33:42.482Z,2.67
2023-01-19T21:36:10.702Z,2.68
2023-01-19T21:38:39.328Z,2.88
2023-01-19T21:41:09.291Z,2.71
2023-01-19T21:43:38.340Z,2.71
2023-01-19T21:46:13.020Z,2.99
2023-01-19T21:48:41.722Z,3.43
2023-01-19T21:51:10.051Z,3.34
2023-01-19T21:53:37.853Z,3.12
2023-01-19T21:56:07.100Z,3.08
2023-01-19T21:58:35.378Z,3.12
2023-01-19T22:01:06.241Z,3.15
2023-01-19T22:03:34.427Z,3.15
2023-01-19T22:06:06.803Z,3.20
2023-01-19T22:08:35.184Z,3.14
2023-01-19T22:11:09.534Z,3.45
2023-01-19T22:13:38.088Z,3.34
2023-01-19T22:16:08.291Z,2.79
2023-01-19T22:18:40.789Z,3.16
2023-01-19T22:21:33.520Z,3.12
2023-01-19T22:24:02.633Z,3.35
2023-01-19T22:26:31.885Z,3.54
2023-01-19T22:29:01.801Z,3.45
2023-01-19T22:31:30.826Z,3.44
2023-01-19T22:33:58.862Z,3.39
2023-01-19T22:36:26.643Z,3.23
2023-01-19T22:39:04.142Z,3.04
2023-01-19T22:41:37.045Z,3.33
2023-01-19T22:44:07.852Z,3.14
2023-01-19T22:46:37.015Z,3.14
2023-01-19T22:49:06.553Z,2.93
2023-01-19T22:51:34.935Z,3.09
2023-01-19T22:54:02.686Z,3.01
2023-01-19T22:56:33.631Z,2.95
2023-01-19T22:59:01.379Z,2.94
2023-01-19T23:01:30.482Z,2.84
2023-01-19T23:03:59.247Z,2.78
2023-01-19T23:06:29.394Z,3.01
2023-01-19T23:08:59.523Z,3.01
2023-01-19T23:11:30.238Z,3.08
2023-01-19T23:13:58.401Z,3.08
2023-01-19T23:16:26.301Z,3.06
2023-01-19T23:18:55.917Z,3.15
2023-01-19T23:21:26.282Z,3.20
2023-01-19T23:23:59.284Z,3.24
2023-01-19T23:26:28.376Z,3.34
2023-01-19T23:29:01.448Z,3.12
2023-01-19T23:31:31.715Z,3.15
2023-01-19T23:34:01.995Z,3.10
2023-01-19T23:36:31.979Z,3.15
2023-01-19T23:39:02.397Z,3.33
2023-01-19T23:41:31.763Z,3.24
2023-01-19T23:43:59.499Z,3.22
2023-01-19T23:46:27.820Z,3.32
2023-01-19T23:48:56.032Z,3.44
2023-01-19T23:51:25.671Z,3.27
2023-01-19T23:53:54.153Z,3.14
2023-01-19T23:56:25.130Z,3.12
2023-01-19T23:59:02.691Z,3.21
